Time;durP1;ratioP1;P1;durP2;ratioP2;P2;SDS_P1;SDS_P2;PMS_P1;PMS_P2;Temp;Humidity;BMP_temperature;BMP_pressure;BME280_temperature;BME280_humidity;BME280_pressure;Samples;Min_cycle;Max_cycle;Signal;HPM_P1;HPM_P2
2021/06/15 00:01:30;;;;;;;0.20;0.10;;;20.40;62.60;;;;;;5063801;28;20127;-79
2021/06/15 00:03:55;;;;;;;0.10;0.10;;;20.30;63.50;;;;;;5075733;28;20060;-80
2021/06/15 00:06:21;;;;;;;0.10;0.10;;;20.30;63.20;;;;;;5076282;28;20166;-80
2021/06/15 00:08:47;;;;;;;0.17;0.10;;;20.30;63.50;;;;;;5076326;28;20028;-79
2021/06/15 00:11:12;;;;;;;0.20;0.10;;;20.30;63.40;;;;;;5069633;28;20495;-79
2021/06/15 00:13:38;;;;;;;0.20;0.10;;;20.30;63.90;;;;;;5056235;28;20112;-79
2021/06/15 00:16:04;;;;;;;0.10;0.10;;;20.30;63.30;;;;;;5056080;28;20084;-79
2021/06/15 00:18:32;;;;;;;0.10;0.10;;;20.30;63.50;;;;;;5062784;28;20033;-79
2021/06/15 00:20:58;;;;;;;0.13;0.10;;;20.30;63.80;;;;;;5075890;28;20020;-79
2021/06/15 00:23:23;;;;;;;0.10;0.10;;;20.30;63.80;;;;;;5075857;28;20027;-79
2021/06/15 00:25:49;;;;;;;0.10;0.10;;;20.30;63.80;;;;;;5074833;28;20520;-79
2021/06/15 00:28:19;;;;;;;0.10;0.10;;;20.50;63.70;;;;;;5058015;28;20036;-79
2021/06/15 00:30:45;;;;;;;;;;;20.40;64.40;;;;;;5075692;28;20074;-79
2021/06/15 00:33:11;;;;;;;0.10;0.10;;;20.50;64.00;;;;;;5075695;28;19912;-79
2021/06/15 00:35:36;;;;;;;0.10;0.10;;;20.40;64.50;;;;;;5060497;28;20043;-79
2021/06/15 00:38:02;;;;;;;0.30;0.20;;;20.50;64.00;;;;;;5069688;28;20075;-79
2021/06/15 00:40:28;;;;;;;0.13;0.13;;;20.60;64.00;;;;;;5055804;28;20029;-79
2021/06/15 00:42:54;;;;;;;0.10;0.10;;;20.60;64.40;;;;;;5056381;28;20051;-79
2021/06/15 00:45:24;;;;;;;0.17;0.10;;;20.60;64.20;;;;;;5075667;28;20104;-79
2021/06/15 00:47:51;;;;;;;0.13;0.10;;;20.60;64.20;;;;;;5075029;28;20078;-80
2021/06/15 00:50:17;;;;;;;0.20;0.20;;;20.60;64.70;;;;;;5057508;28;20028;-80
2021/06/15 00:52:44;;;;;;;0.10;0.10;;;20.50;64.80;;;;;;5075683;28;20497;-79
2021/06/15 00:55:11;;;;;;;0.17;0.10;;;20.60;64.90;;;;;;5074890;28;20112;-80
2021/06/15 00:57:36;;;;;;;0.20;0.10;;;20.60;64.90;;;;;;5057475;28;20020;-79
2021/06/15 01:00:06;;;;;;;0.20;0.13;;;20.60;65.00;;;;;;5079307;28;20088;-79
2021/06/15 01:02:35;;;;;;;0.22;0.10;;;20.60;65.00;;;;;;5057242;28;20095;-79
2021/06/15 01:05:01;;;;;;;0.30;0.10;;;20.70;64.70;;;;;;5075555;28;20036;-79
2021/06/15 01:08:02;;;;;;;;;;;;;;;;;;;;;
2021/06/15 01:10:47;;;;;;;0.13;0.10;;;20.60;65.10;;;;;;5055592;28;20135;-79
2021/06/15 01:13:50;;;;;;;0.10;0.10;;;20.60;65.20;;;;;;5055512;28;20032;-79
2021/06/15 01:16:33;;;;;;;0.10;0.10;;;20.70;65.30;;;;;;5055181;28;20045;-79
2021/06/15 01:19:36;;;;;;;0.10;0.10;;;20.70;65.60;;;;;;5055387;28;20017;-79
2021/06/15 01:22:20;;;;;;;0.10;0.10;;;20.60;65.60;;;;;;5074948;28;20082;-79
2021/06/15 01:25:07;;;;;;;0.20;0.10;;;20.70;65.30;;;;;;5075140;28;20020;-79
2021/06/15 01:27:44;;;;;;;0.10;0.10;;;20.70;65.20;;;;;;5075326;28;20421;-79
2021/06/15 01:30:13;;;;;;;0.30;0.15;;;20.70;66.00;;;;;;5065510;28;20032;-79
2021/06/15 01:32:45;;;;;;;0.10;0.10;;;20.60;65.50;;;;;;5055071;28;20025;-79
2021/06/15 01:35:13;;;;;;;0.20;0.10;;;20.70;65.50;;;;;;5037191;28;20033;-79
2021/06/15 01:37:43;;;;;;;0.17;0.10;;;20.60;66.70;;;;;;5075265;28;20440;-79
2021/06/15 01:40:15;;;;;;;0.20;0.10;;;20.60;66.20;;;;;;5079163;28;20016;-79
2021/06/15 01:42:48;;;;;;;0.15;0.10;;;20.60;66.00;;;;;;5057435;28;20029;-79
2021/06/15 01:45:31;;;;;;;0.20;0.10;;;20.60;66.00;;;;;;5059040;28;20021;-79
2021/06/15 01:48:13;;;;;;;0.20;0.10;;;20.60;65.90;;;;;;5058821;28;20028;-79
2021/06/15 01:50:42;;;;;;;0.17;0.10;;;20.60;66.60;;;;;;5059330;28;20024;-79
2021/06/15 01:53:10;;;;;;;0.20;0.10;;;20.50;66.70;;;;;;5058807;28;20048;-79
2021/06/15 01:55:37;;;;;;;0.17;0.10;;;20.50;66.90;;;;;;5050560;28;20021;-79
2021/06/15 01:58:04;;;;;;;0.10;0.10;;;20.50;66.60;;;;;;5063780;28;20387;-79
2021/06/15 02:00:31;;;;;;;0.10;0.10;;;20.50;66.70;;;;;;5079276;28;20028;-79
2021/06/15 02:03:00;;;;;;;0.20;0.10;;;20.60;66.40;;;;;;5080419;28;20040;-79
2021/06/15 02:05:32;;;;;;;0.10;0.10;;;20.70;66.10;;;;;;5098730;28;20020;-79
2021/06/15 02:08:01;;;;;;;0.10;0.10;;;20.70;66.50;;;;;;5060089;28;20047;-79
2021/06/15 02:10:43;;;;;;;0.10;0.10;;;20.70;66.40;;;;;;5058759;28;20094;-79
2021/06/15 02:13:09;;;;;;;0.10;0.10;;;20.70;67.00;;;;;;5075690;28;20047;-79
2021/06/15 02:15:35;;;;;;;0.17;0.13;;;20.60;66.70;;;;;;5078316;28;20514;-79
2021/06/15 02:18:01;;;;;;;0.10;0.10;;;20.60;67.50;;;;;;5078241;28;20025;-79
2021/06/15 02:20:31;;;;;;;0.20;0.10;;;20.60;67.00;;;;;;5077813;28;20033;-79
2021/06/15 02:22:59;;;;;;;0.10;0.10;;;20.60;67.40;;;;;;5078196;28;20379;-79
2021/06/15 02:25:35;;;;;;;0.20;0.10;;;20.60;67.10;;;;;;5074246;28;20378;-79
2021/06/15 02:28:04;;;;;;;0.10;0.10;;;20.60;66.90;;;;;;5058199;28;20099;-79
2021/06/15 02:30:30;;;;;;;0.20;0.20;;;20.60;67.00;;;;;;5058254;28;20150;-79
2021/06/15 02:33:02;;;;;;;0.13;0.10;;;20.70;67.30;;;;;;5058451;28;20025;-78
2021/06/15 02:35:29;;;;;;;0.10;0.10;;;20.60;67.30;;;;;;5059569;28;20086;-79
2021/06/15 02:38:01;;;;;;;0.10;0.10;;;20.50;67.00;;;;;;5060124;28;20020;-79
2021/06/15 02:40:28;;;;;;;0.10;0.10;;;20.50;67.10;;;;;;5077693;28;20040;-79
2021/06/15 02:42:55;;;;;;;0.10;0.10;;;20.50;67.50;;;;;;5078239;28;20024;-77
2021/06/15 02:45:26;;;;;;;0.10;0.10;;;20.50;67.40;;;;;;5060102;28;20032;-79
2021/06/15 02:47:55;;;;;;;0.10;0.10;;;20.40;67.30;;;;;;5059435;28;20037;-79
2021/06/15 02:50:33;;;;;;;0.13;0.10;;;20.50;67.30;;;;;;5077167;28;20021;-79
2021/06/15 02:53:10;;;;;;;0.10;0.10;;;20.40;67.40;;;;;;5059713;28;20056;-79
2021/06/15 02:56:14;;;;;;;0.10;0.10;;;20.40;67.40;;;;;;5055791;28;20060;-79
2021/06/15 02:58:39;;;;;;;0.10;0.10;;;20.40;67.00;;;;;;5059090;28;20032;-79
2021/06/15 03:01:05;;;;;;;0.10;0.10;;;20.50;66.80;;;;;;5088287;28;20106;-79
2021/06/15 03:03:31;;;;;;;0.10;0.10;;;20.50;67.30;;;;;;5077524;28;20487;-79
2021/06/15 03:05:56;;;;;;;0.10;0.10;;;20.40;67.60;;;;;;5076878;28;20059;-79
2021/06/15 03:08:22;;;;;;;0.10;0.10;;;20.40;67.60;;;;;;5077792;28;20029;-79
2021/06/15 03:10:48;;;;;;;0.10;0.10;;;20.30;68.30;;;;;;5077073;28;20059;-79
2021/06/15 03:13:32;;;;;;;0.10;0.10;;;20.30;67.90;;;;;;5077260;28;20501;-79
2021/06/15 03:16:02;;;;;;;0.20;0.10;;;20.20;68.30;;;;;;5077317;28;20041;-79
2021/06/15 03:18:42;;;;;;;0.10;0.10;;;20.20;68.60;;;;;;5059302;28;20135;-79
2021/06/15 03:21:11;;;;;;;0.15;0.10;;;20.30;68.00;;;;;;5068782;28;20739;-79
2021/06/15 03:24:02;;;;;;;0.20;0.10;;;20.30;68.20;;;;;;5039273;28;20044;-79
2021/06/15 03:26:38;;;;;;;0.10;0.10;;;20.30;67.90;;;;;;5057193;28;20032;-79
2021/06/15 03:29:05;;;;;;;0.20;0.10;;;20.30;68.10;;;;;;5056940;28;20037;-79
2021/06/15 03:31:37;;;;;;;0.10;0.10;;;20.30;68.30;;;;;;5057014;28;20403;-79
2021/06/15 03:34:04;;;;;;;0.20;0.15;;;20.30;68.10;;;;;;5042431;28;20028;-79
2021/06/15 03:36:31;;;;;;;0.10;0.10;;;20.30;67.60;;;;;;5067328;28;20376;-78
2021/06/15 03:38:58;;;;;;;0.10;0.10;;;20.40;67.50;;;;;;5076296;28;20352;-78
2021/06/15 03:41:26;;;;;;;0.10;0.10;;;20.40;67.70;;;;;;5076883;28;20024;-79
2021/06/15 03:43:57;;;;;;;0.10;0.10;;;20.30;67.80;;;;;;5063192;28;20399;-79
2021/06/15 03:46:24;;;;;;;0.13;0.10;;;20.40;67.20;;;;;;5056870;28;20029;-79
2021/06/15 03:48:51;;;;;;;0.13;0.10;;;20.40;67.60;;;;;;5056522;28;20088;-79
2021/06/15 03:51:21;;;;;;;0.20;0.20;;;20.40;67.60;;;;;;5075974;28;20545;-79
2021/06/15 03:53:47;;;;;;;0.20;0.10;;;20.30;67.90;;;;;;5076681;28;20078;-79
2021/06/15 03:56:14;;;;;;;0.13;0.10;;;20.30;68.30;;;;;;5076213;28;20032;-79
2021/06/15 03:58:58;;;;;;;0.10;0.10;;;20.30;68.30;;;;;;5062190;28;20036;-79
2021/06/15 04:01:23;;;;;;;0.10;0.10;;;20.30;67.90;;;;;;5078450;28;20109;-79
2021/06/15 04:03:50;;;;;;;0.20;0.10;;;20.40;68.50;;;;;;5090955;28;20020;-79
2021/06/15 04:06:17;;;;;;;0.10;0.10;;;20.40;67.90;;;;;;5075762;28;20037;-79
2021/06/15 04:08:44;;;;;;;0.20;0.10;;;20.40;68.20;;;;;;5058285;28;20029;-79
2021/06/15 04:11:12;;;;;;;0.10;0.10;;;20.30;68.60;;;;;;5076343;28;20060;-79
2021/06/15 04:13:41;;;;;;;0.10;0.10;;;20.40;68.20;;;;;;5057139;28;20078;-79
2021/06/15 04:16:15;;;;;;;0.20;0.10;;;20.30;68.20;;;;;;5056221;28;20032;-78
2021/06/15 04:18:45;;;;;;;0.10;0.10;;;20.30;68.10;;;;;;5055884;28;20078;-77
2021/06/15 04:21:12;;;;;;;0.10;0.10;;;20.40;67.90;;;;;;5056064;28;20448;-79
2021/06/15 04:23:48;;;;;;;0.10;0.10;;;20.30;68.30;;;;;;5069825;28;20033;-79
2021/06/15 04:26:14;;;;;;;0.10;0.10;;;20.30;68.40;;;;;;5057956;28;20441;-79
2021/06/15 04:28:40;;;;;;;0.17;0.10;;;20.30;68.00;;;;;;5057834;28;20024;-79
2021/06/15 04:31:06;;;;;;;0.10;0.10;;;20.30;68.30;;;;;;5057804;28;20028;-79
2021/06/15 04:33:32;;;;;;;0.20;0.10;;;20.30;68.20;;;;;;5075217;28;20027;-79
2021/06/15 04:36:01;;;;;;;0.10;0.10;;;20.30;68.40;;;;;;5075694;28;20391;-79
2021/06/15 04:38:33;;;;;;;0.10;0.10;;;20.30;68.20;;;;;;5075050;28;20035;-79
2021/06/15 04:41:04;;;;;;;0.10;0.10;;;20.30;68.10;;;;;;5057042;28;20032;-79
2021/06/15 04:43:39;;;;;;;0.20;0.10;;;20.30;68.90;;;;;;5057790;28;20016;-79
2021/06/15 04:46:07;;;;;;;0.20;0.10;;;20.30;68.40;;;;;;5075057;28;20036;-79
2021/06/15 04:48:37;;;;;;;0.10;0.10;;;20.30;68.30;;;;;;5075535;28;20035;-78
2021/06/15 04:51:04;;;;;;;0.10;0.10;;;20.30;68.60;;;;;;5077833;28;20033;-81
2021/06/15 04:53:35;;;;;;;0.13;0.10;;;20.40;68.10;;;;;;5075866;28;20028;-79
2021/06/15 04:56:02;;;;;;;0.10;0.10;;;20.50;67.90;;;;;;5075507;28;20487;-77
2021/06/15 04:58:31;;;;;;;0.10;0.10;;;20.40;68.40;;;;;;5076855;28;20029;-76
2021/06/15 05:00:59;;;;;;;0.10;0.10;;;20.40;68.60;;;;;;5087348;28;20052;-79
2021/06/15 05:03:28;;;;;;;0.10;0.10;;;20.40;68.20;;;;;;5035165;28;20574;-78
2021/06/15 05:05:54;;;;;;;0.10;0.10;;;20.50;68.50;;;;;;5035225;28;20025;-78
2021/06/15 05:08:22;;;;;;;0.10;0.10;;;20.50;68.20;;;;;;5035262;28;20029;-79
2021/06/15 05:10:50;;;;;;;0.10;0.10;;;20.50;68.00;;;;;;5034161;28;20034;-81
2021/06/15 05:13:18;;;;;;;0.10;0.10;;;20.60;67.80;;;;;;5034456;28;20029;-84
2021/06/15 05:15:44;;;;;;;0.20;0.10;;;20.60;67.90;;;;;;5035080;28;20049;-81
2021/06/15 05:18:10;;;;;;;0.20;0.15;;;20.60;68.00;;;;;;5035156;28;20033;-79
2021/06/15 05:20:37;;;;;;;0.10;0.10;;;20.70;67.80;;;;;;5035112;28;20022;-79
2021/06/15 05:23:14;;;;;;;0.20;0.10;;;20.70;67.80;;;;;;5035270;28;20476;-79
2021/06/15 05:25:41;;;;;;;0.10;0.10;;;20.70;67.40;;;;;;5035017;28;20367;-76
2021/06/15 05:28:07;;;;;;;0.20;0.15;;;20.80;67.70;;;;;;5035092;28;20040;-79
2021/06/15 05:30:33;;;;;;;0.20;0.15;;;20.80;67.20;;;;;;5035130;28;20472;-78
2021/06/15 05:32:58;;;;;;;0.20;0.10;;;20.80;67.60;;;;;;5032825;28;20029;-78
2021/06/15 05:35:25;;;;;;;0.10;0.10;;;20.70;68.00;;;;;;5034695;28;20041;-77
2021/06/15 05:37:51;;;;;;;0.10;0.10;;;20.70;67.90;;;;;;5032815;28;20112;-77
2021/06/15 05:40:17;;;;;;;0.20;0.10;;;20.80;67.80;;;;;;5019940;28;20152;-78
2021/06/15 05:42:43;;;;;;;0.10;0.10;;;20.80;68.00;;;;;;5034939;28;20052;-78
2021/06/15 05:45:10;;;;;;;0.20;0.10;;;20.80;67.40;;;;;;5035029;28;20083;-77
2021/06/15 05:47:37;;;;;;;0.10;0.10;;;20.90;67.40;;;;;;5034851;28;20030;-78
2021/06/15 05:50:05;;;;;;;0.20;0.10;;;21.00;66.80;;;;;;5016903;28;20056;-78
2021/06/15 05:52:30;;;;;;;0.17;0.10;;;21.00;67.30;;;;;;5034854;28;20029;-77
2021/06/15 05:54:59;;;;;;;0.10;0.10;;;21.00;67.30;;;;;;5034859;28;20029;-79
2021/06/15 05:57:26;;;;;;;0.10;0.10;;;21.00;67.50;;;;;;5016987;28;20033;-78
2021/06/15 05:59:52;;;;;;;0.10;0.10;;;21.00;67.30;;;;;;5056544;28;20024;-78
2021/06/15 06:02:18;;;;;;;0.10;0.10;;;21.10;67.00;;;;;;5034783;28;20042;-78
2021/06/15 06:09:56;;;;;;;0.10;0.10;;;21.30;66.70;;;;;;5034671;28;20045;-79
2021/06/15 06:12:22;;;;;;;0.05;0.05;;;21.30;66.90;;;;;;5034897;28;20065;-79
2021/06/15 06:14:47;;;;;;;0.10;0.10;;;21.30;67.00;;;;;;5034749;28;20029;-79
2021/06/15 06:17:13;;;;;;;0.10;0.10;;;21.30;66.70;;;;;;5034859;28;20025;-79
2021/06/15 06:19:40;;;;;;;0.20;0.10;;;21.30;66.40;;;;;;5034188;28;20476;-78
2021/06/15 06:22:06;;;;;;;0.05;0.05;;;21.30;66.40;;;;;;5017358;28;20018;-79
2021/06/15 06:24:32;;;;;;;0.25;0.13;;;21.30;66.40;;;;;;5035457;28;20029;-79
2021/06/15 06:26:58;;;;;;;0.10;0.10;;;21.40;66.20;;;;;;5038419;28;20037;-78
2021/06/15 06:29:24;;;;;;;0.10;0.10;;;21.40;66.10;;;;;;5038177;28;20499;-79
2021/06/15 06:31:50;;;;;;;0.10;0.10;;;21.50;65.90;;;;;;5038213;28;20029;-79
2021/06/15 06:34:16;;;;;;;0.10;0.10;;;21.60;65.70;;;;;;5037698;28;20045;-79
2021/06/15 06:36:41;;;;;;;0.10;0.10;;;21.60;65.70;;;;;;5032004;28;20029;-79
2021/06/15 06:39:08;;;;;;;0.10;0.10;;;21.60;65.60;;;;;;5036231;28;20029;-79
2021/06/15 06:41:35;;;;;;;0.25;0.10;;;21.70;65.20;;;;;;5038066;28;20029;-79
2021/06/15 06:44:01;;;;;;;0.10;0.10;;;21.70;65.30;;;;;;5031033;28;20113;-79
2021/06/15 06:46:26;;;;;;;0.00;0.00;;;21.80;65.00;;;;;;5020453;28;20061;-79
2021/06/15 06:48:53;;;;;;;0.10;0.10;;;21.70;65.00;;;;;;5036516;28;20041;-78
2021/06/15 06:51:19;;;;;;;0.20;0.10;;;21.70;65.20;;;;;;5037579;28;20033;-78
2021/06/15 06:53:46;;;;;;;0.10;0.10;;;21.70;65.20;;;;;;5037805;28;20143;-79
2021/06/15 06:56:11;;;;;;;0.17;0.10;;;21.60;65.60;;;;;;5037737;28;20030;-79
2021/06/15 06:58:37;;;;;;;0.03;0.03;;;21.60;65.50;;;;;;5044021;28;20104;-82
2021/06/15 07:01:04;;;;;;;0.10;0.10;;;21.80;65.40;;;;;;5072459;28;20051;-79
2021/06/15 07:03:29;;;;;;;0.10;0.10;;;22.00;64.50;;;;;;5036184;28;20026;-77
2021/06/15 07:05:55;;;;;;;0.00;0.00;;;22.20;64.00;;;;;;5034602;28;20087;-80
2021/06/15 07:08:21;;;;;;;0.10;0.10;;;22.30;63.30;;;;;;5019664;28;20029;-80
2021/06/15 07:10:49;;;;;;;0.03;0.03;;;22.60;62.60;;;;;;5037196;28;20040;-80
2021/06/15 07:13:15;;;;;;;0.10;0.10;;;22.70;62.30;;;;;;5037491;28;20120;-81
2021/06/15 07:15:40;;;;;;;0.03;0.03;;;22.80;62.10;;;;;;5035962;28;20072;-79
2021/06/15 07:18:06;;;;;;;0.08;0.08;;;22.90;61.80;;;;;;5034617;28;20124;-80
2021/06/15 07:20:32;;;;;;;0.08;0.08;;;22.90;61.80;;;;;;5035701;28;20025;-80
2021/06/15 07:22:58;;;;;;;0.00;0.00;;;23.00;61.60;;;;;;5037041;28;20399;-78
2021/06/15 07:25:24;;;;;;;0.00;0.00;;;23.20;61.00;;;;;;5037087;28;20026;-79
2021/06/15 07:27:49;;;;;;;0.00;0.00;;;23.30;60.70;;;;;;5037024;28;20077;-78
2021/06/15 07:30:16;;;;;;;0.10;0.10;;;23.20;60.70;;;;;;5037259;28;20038;-77
2021/06/15 07:32:42;;;;;;;0.10;0.00;;;23.00;61.80;;;;;;5036944;28;20095;-78
2021/06/15 07:35:09;;;;;;;0.10;0.10;;;23.00;61.40;;;;;;5038192;28;20037;-77
2021/06/15 07:37:35;;;;;;;0.10;0.10;;;23.10;61.50;;;;;;5056064;28;20048;-78
2021/06/15 07:40:00;;;;;;;0.05;0.05;;;23.30;61.40;;;;;;5054962;28;20037;-77
2021/06/15 07:42:29;;;;;;;0.08;0.08;;;23.40;61.20;;;;;;5054846;28;20025;-78
2021/06/15 07:44:55;;;;;;;0.10;0.10;;;23.50;61.10;;;;;;5036872;28;20026;-78
2021/06/15 07:47:21;;;;;;;0.00;0.00;;;23.80;60.30;;;;;;5036376;28;20042;-78
2021/06/15 07:49:47;;;;;;;0.05;0.05;;;23.90;59.00;;;;;;5047530;28;20025;-77
2021/06/15 07:52:13;;;;;;;0.00;0.00;;;24.00;58.40;;;;;;5056408;28;20017;-78
2021/06/15 07:54:41;;;;;;;0.20;0.00;;;24.40;57.50;;;;;;5020166;28;20051;-78
2021/06/15 07:57:08;;;;;;;0.00;0.00;;;24.50;56.70;;;;;;5053412;28;20029;-78
2021/06/15 07:59:35;;;;;;;0.00;0.00;;;24.50;56.70;;;;;;5047522;28;20030;-77
2021/06/15 08:02:01;;;;;;;0.03;0.00;;;24.40;57.00;;;;;;5031502;28;20054;-77
2021/06/15 08:04:27;;;;;;;0.00;0.00;;;24.40;57.00;;;;;;5016427;28;20018;-77
2021/06/15 08:06:53;;;;;;;0.00;0.00;;;24.50;56.60;;;;;;5029586;28;20029;-77
2021/06/15 08:09:19;;;;;;;0.00;0.00;;;24.70;56.10;;;;;;5033927;28;20038;-77
2021/06/15 08:11:45;;;;;;;0.00;0.00;;;24.60;55.90;;;;;;5035608;28;20022;-77
2021/06/15 08:14:12;;;;;;;0.03;0.03;;;24.60;56.30;;;;;;5036078;28;20033;-78
2021/06/15 08:16:37;;;;;;;0.10;0.10;;;24.80;55.90;;;;;;5017586;28;20507;-79
2021/06/15 08:19:03;;;;;;;0.10;0.10;;;25.80;53.90;;;;;;5016039;28;20033;-77
2021/06/15 08:21:29;;;;;;;0.10;0.10;;;27.60;50.10;;;;;;5016264;28;20029;-78
2021/06/15 08:23:55;;;;;;;0.03;0.00;;;28.60;47.20;;;;;;5015934;28;20065;-78
2021/06/15 08:26:21;;;;;;;0.00;0.00;;;29.80;44.30;;;;;;5020819;28;20049;-78
2021/06/15 08:28:47;;;;;;;0.10;0.10;;;31.30;42.10;;;;;;5028316;28;20400;-79
2021/06/15 08:31:15;;;;;;;0.00;0.00;;;31.90;39.90;;;;;;5016188;28;20105;-77
2021/06/15 08:33:41;;;;;;;0.00;0.00;;;32.80;38.30;;;;;;5024511;28;20109;-78
2021/06/15 08:36:07;;;;;;;0.00;0.00;;;33.30;37.50;;;;;;5022899;28;20064;-78
2021/06/15 08:38:32;;;;;;;0.00;0.00;;;33.40;36.90;;;;;;5033988;28;20032;-78
2021/06/15 08:40:58;;;;;;;0.00;0.00;;;33.80;36.40;;;;;;5035805;28;20017;-78
2021/06/15 08:43:24;;;;;;;0.10;0.10;;;34.50;35.70;;;;;;5016889;28;20849;-78
2021/06/15 08:45:50;;;;;;;0.00;0.00;;;34.80;35.50;;;;;;5015895;28;20496;-78
2021/06/15 08:48:16;;;;;;;0.00;0.00;;;34.80;33.90;;;;;;5015660;28;20087;-79
2021/06/15 08:50:44;;;;;;;0.00;0.00;;;35.10;34.60;;;;;;5013687;28;20029;-79
2021/06/15 08:53:10;;;;;;;0.00;0.00;;;35.30;34.10;;;;;;5015096;28;20026;-78
2021/06/15 08:55:39;;;;;;;0.00;0.00;;;35.20;33.00;;;;;;5014400;28;20472;-78
2021/06/15 08:58:34;;;;;;;0.00;0.00;;;35.30;33.10;;;;;;5015348;28;20384;-78
2021/06/15 09:01:00;;;;;;;0.00;0.00;;;35.50;33.00;;;;;;5018969;28;20041;-78
2021/06/15 09:03:26;;;;;;;0.00;0.00;;;35.50;33.30;;;;;;5035557;28;20025;-78
2021/06/15 09:05:51;;;;;;;0.25;0.00;;;35.50;33.40;;;;;;5035399;28;20508;-78
2021/06/15 09:08:30;;;;;;;0.00;0.00;;;35.50;33.50;;;;;;5118310;27;20701;-78
2021/06/15 09:10:57;;;;;;;0.10;0.00;;;35.60;33.80;;;;;;5104225;28;20494;-76
2021/06/15 09:13:37;;;;;;;0.00;0.00;;;35.70;33.50;;;;;;5110540;28;20081;-76
2021/06/15 09:16:27;;;;;;;0.00;0.00;;;35.70;33.10;;;;;;5098121;28;20032;-76
2021/06/15 09:18:55;;;;;;;0.10;0.10;;;35.60;33.20;;;;;;5101031;28;20039;-77
2021/06/15 09:21:30;;;;;;;0.00;0.00;;;35.80;34.00;;;;;;5103329;28;20107;-77
2021/06/15 09:24:11;;;;;;;0.00;0.00;;;36.00;32.80;;;;;;5103021;28;20072;-77
2021/06/15 09:29:47;;;;;;;0.03;0.00;;;36.80;31.90;;;;;;5101103;28;20024;-77
2021/06/15 09:32:20;;;;;;;0.00;0.00;;;37.00;32.00;;;;;;5116859;28;20027;-77
2021/06/15 09:35:07;;;;;;;0.00;0.00;;;37.10;30.90;;;;;;5095830;28;20028;-77
2021/06/15 09:37:44;;;;;;;0.00;0.00;;;36.60;30.90;;;;;;5099388;28;20031;-77
2021/06/15 09:40:21;;;;;;;0.10;0.10;;;36.80;32.10;;;;;;5099444;28;20039;-77
2021/06/15 09:42:55;;;;;;;0.00;0.00;;;37.20;31.10;;;;;;5094861;28;20028;-78
2021/06/15 09:45:27;;;;;;;0.10;0.08;;;37.00;30.10;;;;;;5092278;28;20267;-77
2021/06/15 09:47:53;;;;;;;0.00;0.00;;;36.10;33.00;;;;;;5092197;28;20060;-77
2021/06/15 09:50:23;;;;;;;0.00;0.00;;;35.40;33.80;;;;;;5081647;28;20020;-77
2021/06/15 09:52:49;;;;;;;0.03;0.03;;;35.10;34.20;;;;;;5092110;28;20035;-77
2021/06/15 09:55:17;;;;;;;0.00;0.00;;;35.60;33.60;;;;;;5086523;28;20116;-77
2021/06/15 09:57:48;;;;;;;0.00;0.00;;;36.00;32.30;;;;;;5092125;28;20028;-77
2021/06/15 10:00:21;;;;;;;0.00;0.00;;;36.20;31.80;;;;;;5092122;28;20054;-77
2021/06/15 10:03:00;;;;;;;0.00;0.00;;;36.30;31.50;;;;;;5090828;28;20034;-77
2021/06/15 10:05:37;;;;;;;0.15;0.10;;;36.80;32.50;;;;;;5091723;28;20028;-77
2021/06/15 10:08:06;;;;;;;0.00;0.00;;;36.90;31.40;;;;;;5088212;28;20053;-77
2021/06/15 10:10:41;;;;;;;0.10;0.10;;;36.90;31.70;;;;;;5071414;28;20078;-77
2021/06/15 10:13:08;;;;;;;0.10;0.10;;;37.40;30.60;;;;;;5089425;28;20028;-77
2021/06/15 10:15:35;;;;;;;0.00;0.00;;;37.70;31.20;;;;;;5091751;28;20032;-77
2021/06/15 10:18:02;;;;;;;0.00;0.00;;;37.80;30.50;;;;;;5085483;28;20116;-78
2021/06/15 10:20:30;;;;;;;0.10;0.00;;;37.70;30.60;;;;;;5073544;28;20045;-77
2021/06/15 10:22:57;;;;;;;0.00;0.00;;;37.40;30.90;;;;;;5058193;28;20031;-77
2021/06/15 10:25:25;;;;;;;0.00;0.00;;;37.30;30.70;;;;;;5057860;28;20039;-77
2021/06/15 10:27:54;;;;;;;0.00;0.00;;;37.00;31.10;;;;;;5057736;28;20346;-77
2021/06/15 10:30:32;;;;;;;0.00;0.00;;;36.20;31.40;;;;;;5057947;28;20059;-77
2021/06/15 10:33:02;;;;;;;0.00;0.00;;;35.60;32.90;;;;;;5057729;28;20025;-77
2021/06/15 10:35:36;;;;;;;0.00;0.00;;;35.10;33.30;;;;;;5059440;28;20064;-77
2021/06/15 10:38:03;;;;;;;0.00;0.00;;;34.80;33.10;;;;;;5077701;28;20021;-77
2021/06/15 10:40:34;;;;;;;0.00;0.00;;;34.60;34.50;;;;;;5074742;28;20032;-77
2021/06/15 10:43:19;;;;;;;0.00;0.00;;;34.30;34.60;;;;;;5063907;28;20020;-77
2021/06/15 10:45:59;;;;;;;0.00;0.00;;;33.80;36.00;;;;;;5077757;28;20502;-77
2021/06/15 10:48:27;;;;;;;0.10;0.00;;;33.30;36.80;;;;;;5077591;28;20437;-77
2021/06/15 10:50:54;;;;;;;0.00;0.00;;;33.00;37.50;;;;;;5061565;28;20074;-77
2021/06/15 10:53:34;;;;;;;0.00;0.00;;;32.80;37.60;;;;;;5057464;28;20104;-77
2021/06/15 10:56:10;;;;;;;0.00;0.00;;;32.40;38.00;;;;;;5057325;28;20028;-77
2021/06/15 10:58:35;;;;;;;0.08;0.00;;;32.30;38.10;;;;;;5060013;28;20608;-77
2021/06/15 11:01:24;;;;;;;0.00;0.00;;;32.20;38.80;;;;;;5077388;28;20054;-77
2021/06/15 11:03:58;;;;;;;0.00;0.00;;;32.10;38.10;;;;;;5075984;28;20059;-77
2021/06/15 11:06:26;;;;;;;0.00;0.00;;;31.90;38.70;;;;;;5075629;28;20048;-77
2021/06/15 11:09:21;;;;;;;0.00;0.00;;;31.70;39.10;;;;;;5077288;28;20028;-77
2021/06/15 11:11:49;;;;;;;0.00;0.00;;;31.60;39.40;;;;;;5057193;28;20506;-77
2021/06/15 11:14:16;;;;;;;0.00;0.00;;;31.50;39.50;;;;;;5057104;28;20017;-77
2021/06/15 11:16:45;;;;;;;0.00;0.00;;;31.50;39.50;;;;;;5057201;28;20029;-77
2021/06/15 11:19:11;;;;;;;0.00;0.00;;;31.40;40.00;;;;;;5056744;28;20021;-77
2021/06/15 11:21:51;;;;;;;0.00;0.00;;;31.40;39.90;;;;;;5056950;28;20040;-77
2021/06/15 11:24:26;;;;;;;0.00;0.00;;;31.30;39.50;;;;;;5056926;28;20025;-77
2021/06/15 11:26:54;;;;;;;0.00;0.00;;;31.30;39.10;;;;;;5056527;28;20704;-77
2021/06/15 11:29:36;;;;;;;0.00;0.00;;;31.30;38.50;;;;;;5056595;28;20032;-77
2021/06/15 11:32:19;;;;;;;0.00;0.00;;;31.20;39.90;;;;;;5056208;28;20027;-77
2021/06/15 11:34:58;;;;;;;0.00;0.00;;;31.20;40.00;;;;;;5077213;28;20046;-75
2021/06/15 11:37:33;;;;;;;;;;;31.30;40.70;;;;;;5084032;28;20024;-76
2021/06/15 11:40:11;;;;;;;0.00;0.00;;;31.30;40.80;;;;;;5081780;28;19908;-75
2021/06/15 11:42:38;;;;;;;0.00;0.00;;;31.10;40.40;;;;;;5082667;28;20166;-75
2021/06/15 11:45:20;;;;;;;0.00;0.00;;;31.20;41.00;;;;;;5086357;28;20024;-75
2021/06/15 11:47:47;;;;;;;0.00;0.00;;;31.10;40.30;;;;;;5083302;28;20500;-75
2021/06/15 11:50:18;;;;;;;0.00;0.00;;;31.00;38.50;;;;;;5084990;28;20099;-75
2021/06/15 11:53:02;;;;;;;0.00;0.00;;;30.80;39.50;;;;;;5085203;28;20076;-75
2021/06/15 11:55:30;;;;;;;0.00;0.00;;;30.90;40.20;;;;;;5086995;28;20169;-75
2021/06/15 11:57:58;;;;;;;0.00;0.00;;;30.80;39.20;;;;;;5082209;28;20032;-76
2021/06/15 12:00:24;;;;;;;0.00;0.00;;;30.80;40.30;;;;;;5084748;28;20032;-75
2021/06/15 12:02:59;;;;;;;0.00;0.00;;;30.90;43.00;;;;;;5086768;28;20025;-76
2021/06/15 12:05:25;;;;;;;0.00;0.00;;;30.90;40.80;;;;;;5081974;28;20102;-75
2021/06/15 12:07:53;;;;;;;0.00;0.00;;;30.90;40.50;;;;;;5084566;28;20052;-76
2021/06/15 12:10:22;;;;;;;0.00;0.00;;;30.70;39.90;;;;;;5062118;28;20032;-77
2021/06/15 12:12:54;;;;;;;0.00;0.00;;;30.80;40.30;;;;;;5071046;28;20079;-76
2021/06/15 12:15:40;;;;;;;0.00;0.00;;;30.80;40.50;;;;;;5071222;28;20256;-75
2021/06/15 12:18:08;;;;;;;0.03;0.00;;;30.80;41.50;;;;;;5054508;28;20387;-75
2021/06/15 12:20:37;;;;;;;0.00;0.00;;;30.90;40.00;;;;;;5055286;28;20037;-76
2021/06/15 12:23:27;;;;;;;0.00;0.00;;;30.90;38.60;;;;;;5055747;28;20017;-75
2021/06/15 12:26:04;;;;;;;0.00;0.00;;;30.70;39.90;;;;;;5055585;28;20027;-75
2021/06/15 12:28:29;;;;;;;0.00;0.00;;;30.80;41.10;;;;;;5074035;28;20066;-77
2021/06/15 12:31:10;;;;;;;0.00;0.00;;;30.80;40.00;;;;;;5059600;28;20028;-75
2021/06/15 12:33:37;;;;;;;0.00;0.00;;;30.80;40.20;;;;;;5054032;28;20025;-77
2021/06/15 12:36:06;;;;;;;0.10;0.00;;;30.80;39.80;;;;;;5060702;28;20017;-77
2021/06/15 12:38:33;;;;;;;0.00;0.00;;;30.80;40.00;;;;;;5074789;28;20154;-75
2021/06/15 12:40:59;;;;;;;0.00;0.00;;;30.90;39.60;;;;;;5073599;28;20036;-77
2021/06/15 12:43:27;;;;;;;0.00;0.00;;;30.90;40.10;;;;;;5072539;28;20032;-76
2021/06/15 12:46:06;;;;;;;0.00;0.00;;;30.90;39.40;;;;;;5080305;28;20055;-76
2021/06/15 12:48:32;;;;;;;0.00;0.00;;;30.80;39.80;;;;;;5070898;28;20055;-75
2021/06/15 12:51:10;;;;;;;0.00;0.00;;;30.80;41.10;;;;;;5070305;28;20028;-76
2021/06/15 12:53:38;;;;;;;0.00;0.00;;;30.90;39.60;;;;;;5055333;28;20108;-76
2021/06/15 12:56:16;;;;;;;0.00;0.00;;;30.70;41.70;;;;;;5054315;28;20035;-75
2021/06/15 12:58:44;;;;;;;0.00;0.00;;;30.80;41.60;;;;;;5057170;28;20020;-76
2021/06/15 13:01:17;;;;;;;0.00;0.00;;;30.90;42.40;;;;;;5075224;28;20514;-76
2021/06/15 13:03:48;;;;;;;0.00;0.00;;;31.00;41.40;;;;;;5072613;28;20025;-77
2021/06/15 13:06:14;;;;;;;0.00;0.00;;;31.00;40.90;;;;;;5053806;28;20029;-74
2021/06/15 13:08:40;;;;;;;0.00;0.00;;;31.20;39.30;;;;;;5080228;28;20036;-75
2021/06/15 13:11:23;;;;;;;0.00;0.00;;;31.10;39.80;;;;;;5081422;28;20020;-76